Grant Co International Airport Moses Lake US
ICAO: KMWH
IATA: MWH
Category: Medium
Scheduled Services: No

Elevation: 1189 ft
TransAlt. 18000 ft.

Airport Communications:
APP/DEP:126.4
ATIS:119.05
CTAF:118.25
GND:121.9
SEATTLE RDO:122.4
TWR:118.25
UNICOM:122.95

KMWH Zoom In..

Runways:

(A) RW 04 length 10000 ft width 100 ft
---- / hdg 36

(B) RW 09 length 3500 ft width 90 ft
---- / hdg 90

(C) RW 14L length 13503 ft width 200 ft
---- / hdg 144

(D) RW 14R length 2936 ft width 75 ft
---- / hdg 144

(E) RW 18 length 3327 ft width 75 ft
---- / hdg 180

(F) RW 22 length 10000 ft width 100 ft
---- / hdg 216

(G) RW 27 length 3500 ft width 90 ft
---- / hdg 270

(H) RW 32L length 2936 ft width 75 ft
---- / hdg 324

(I) RW 32R length 13503 ft width 200 ft
ILS 109.50 / hdg 324

(J) RW 36 length 3327 ft width 75 ft
---- / hdg 360

Location; KMWH
Day. 26 / Time. 13.52 Zulu
* Altimeter: 29.90
* Temperature: 14° c. 57.2°f.
* Wind from: 240° Speed 06 kn.
Dewpoint: 02° c.
Visibility: 10 Statute Miles.
Clouds: Clear (automated report).

KMWH 261352Z 24006KT 10SM CLR 14/02 A2990 RMK AO2 SLP119 T01440017


Wind From 240°
Speed 06 kn.

 
 
jpsmedia.com for Web Design SOUNDCLOUD worldairports.se 2018   terms of use